Time;durP1;ratioP1;P1;durP2;ratioP2;P2;SDS_P1;SDS_P2;PMS_P1;PMS_P2;Temp;Humidity;BMP_temperature;BMP_pressure;BME280_temperature;BME280_humidity;BME280_pressure;Samples;Min_cycle;Max_cycle;Signal;HPM_P1;HPM_P2
2023/10/06 00:02:30;;;;;;;13.10;1.70;;;;;;;15.56;100.00;101510.25;5090570;28;20429;-74
2023/10/06 00:04:55;;;;;;;9.98;1.52;;;;;;;15.47;100.00;101498.03;5090767;28;20028;-74
2023/10/06 00:07:23;;;;;;;13.65;1.70;;;;;;;15.51;100.00;101508.22;5091500;28;20028;-73
2023/10/06 00:09:48;;;;;;;12.38;1.77;;;;;;;15.48;100.00;101497.78;5091817;28;20111;-74
2023/10/06 00:12:16;;;;;;;19.52;2.13;;;;;;;15.61;100.00;101515.91;5092062;28;20585;-74
2023/10/06 00:14:48;;;;;;;13.25;1.80;;;;;;;15.59;100.00;101515.25;5090917;28;20055;-74
2023/10/06 00:17:19;;;;;;;13.50;1.85;;;;;;;15.63;100.00;101521.94;5090335;28;20032;-74
2023/10/06 00:19:46;;;;;;;12.85;1.67;;;;;;;15.54;100.00;101509.66;5090956;28;20142;-74
2023/10/06 00:22:18;;;;;;;15.70;2.03;;;;;;;15.68;100.00;101521.31;5074355;28;20035;-74
2023/10/06 00:24:50;;;;;;;13.40;2.10;;;;;;;15.62;100.00;101503.97;5090585;28;20059;-74
2023/10/06 00:27:20;;;;;;;14.68;2.25;;;;;;;15.71;100.00;101518.19;5092550;28;20544;-74
2023/10/06 00:29:54;;;;;;;13.55;1.67;;;;;;;15.64;100.00;101492.94;5108181;28;20032;-73
2023/10/06 00:32:23;;;;;;;15.88;2.40;;;;;;;15.69;100.00;101504.00;5084615;28;20396;-74
2023/10/06 00:35:08;;;;;;;15.35;2.00;;;;;;;15.77;100.00;101497.50;5095070;28;20051;-74
2023/10/06 00:37:38;;;;;;;21.17;2.45;;;;;;;15.76;100.00;101484.97;5105095;28;20028;-74
2023/10/06 00:40:11;;;;;;;17.92;3.03;;;;;;;15.66;100.00;101471.84;5107977;28;20146;-74
2023/10/06 00:42:37;;;;;;;12.90;2.35;;;;;;;15.66;100.00;101460.97;5094803;28;20035;-74
2023/10/06 00:45:08;;;;;;;20.77;2.78;;;;;;;15.73;100.00;101483.53;5094371;28;20119;-74
2023/10/06 00:47:38;;;;;;;12.77;2.38;;;;;;;15.71;100.00;101478.31;5078788;28;20050;-73
2023/10/06 00:50:14;;;;;;;14.10;2.10;;;;;;;15.74;100.00;101482.47;5062148;28;20090;-73
2023/10/06 00:52:41;;;;;;;17.40;2.40;;;;;;;15.63;100.00;101458.69;5094428;28;20123;-74
2023/10/06 00:55:10;;;;;;;16.73;2.50;;;;;;;15.68;100.00;101462.47;5094385;28;20050;-74
2023/10/06 00:57:36;;;;;;;17.23;2.65;;;;;;;15.69;100.00;101453.28;5094293;28;20028;-73
2023/10/06 01:00:15;;;;;;;16.67;2.40;;;;;;;15.76;100.00;101455.13;5094801;28;20031;-73
2023/10/06 01:02:43;;;;;;;19.63;2.10;;;;;;;15.77;100.00;101452.19;5094285;28;20028;-74
2023/10/06 01:05:09;;;;;;;17.30;2.70;;;;;;;15.74;100.00;101458.06;5094780;28;20114;-74
2023/10/06 01:07:36;;;;;;;18.58;3.13;;;;;;;15.71;100.00;101450.34;5094066;28;20111;-74
2023/10/06 01:10:14;;;;;;;17.80;2.70;;;;;;;15.73;100.00;101462.66;5077880;28;20051;-74
2023/10/06 01:12:39;;;;;;;23.30;3.10;;;;;;;15.64;100.00;101447.66;5094117;28;20399;-74
2023/10/06 01:15:19;;;;;;;18.45;2.13;;;;;;;15.72;100.00;101455.53;5060826;28;20120;-73
2023/10/06 01:17:47;;;;;;;19.20;2.67;;;;;;;15.67;100.00;101439.09;5093966;28;20024;-74
2023/10/06 01:20:40;;;;;;;15.23;2.30;;;;;;;15.73;100.00;101442.84;5093808;28;20056;-74
2023/10/06 01:23:00;;;;;;;18.73;2.85;;;;;;;15.67;100.00;101422.00;5093672;28;20032;-74
2023/10/06 01:25:27;;;;;;;19.92;3.03;;;;;;;15.79;100.00;101443.81;5077126;28;20032;-74
2023/10/06 01:27:53;;;;;;;21.70;3.00;;;;;;;15.74;100.00;101441.78;5076633;28;20024;-74
2023/10/06 01:30:19;;;;;;;23.02;3.22;;;;;;;15.76;100.00;101436.97;5077007;28;20086;-73
2023/10/06 01:32:50;;;;;;;22.48;2.45;;;;;;;15.73;100.00;101438.25;5094036;28;20028;-74
2023/10/06 01:35:17;;;;;;;16.98;2.60;;;;;;;15.79;100.00;101441.13;5093406;28;20032;-74
2023/10/06 01:37:44;;;;;;;22.45;2.63;;;;;;;15.80;100.00;101446.34;5076655;28;20111;-74
2023/10/06 01:40:45;;;;;;;21.00;2.80;;;;;;;15.81;100.00;101441.75;5094601;28;20031;-74
2023/10/06 01:43:09;;;;;;;18.52;2.67;;;;;;;15.81;100.00;101437.13;5093209;28;20111;-74
2023/10/06 01:45:36;;;;;;;14.60;2.40;;;;;;;15.83;100.00;101436.94;5094361;28;20048;-74
2023/10/06 01:50:41;;;;;;;15.57;2.40;;;;;;;15.88;100.00;101427.06;5094756;28;20036;-74
2023/10/06 01:53:11;;;;;;;15.02;2.65;;;;;;;15.88;100.00;101424.34;5093053;28;20062;-73
2023/10/06 01:55:39;;;;;;;20.80;2.88;;;;;;;15.86;100.00;101412.03;5093023;28;20054;-73
2023/10/06 01:58:07;;;;;;;23.40;2.97;;;;;;;15.94;100.00;101428.09;5094499;28;20028;-74
2023/10/06 02:00:34;;;;;;;21.02;2.80;;;;;;;15.79;100.00;101401.25;5093006;28;20115;-74
2023/10/06 02:03:03;;;;;;;20.45;3.00;;;;;;;15.81;100.00;101399.16;5093156;28;20521;-74
2023/10/06 02:05:29;;;;;;;16.85;2.15;;;;;;;15.86;100.00;101396.63;5092650;28;20024;-73
2023/10/06 02:08:01;;;;;;;16.33;2.92;;;;;;;15.71;100.00;101398.81;5094557;28;20038;-73
2023/10/06 02:10:27;;;;;;;15.40;2.80;;;;;;;15.68;100.00;101382.97;5093912;28;20114;-73
2023/10/06 02:12:55;;;;;;;15.73;2.70;;;;;;;15.59;100.00;101371.50;5094309;28;20502;-73
2023/10/06 02:15:21;;;;;;;19.38;2.42;;;;;;;15.71;100.00;101394.19;5059722;28;20504;-74
2023/10/06 02:17:47;;;;;;;21.35;2.55;;;;;;;15.54;100.00;101373.22;5074764;28;20028;-74
2023/10/06 02:20:30;;;;;;;15.52;2.40;;;;;;;15.58;100.00;101374.44;5094189;28;20032;-74
2023/10/06 02:23:00;;;;;;;14.45;2.35;;;;;;;15.58;100.00;101385.28;5092761;28;20059;-74
2023/10/06 02:25:26;;;;;;;13.32;1.90;;;;;;;15.39;100.00;101347.19;5093109;28;20023;-74
2023/10/06 02:27:56;;;;;;;11.65;2.00;;;;;;;15.55;100.00;101370.28;5093356;28;20028;-73
2023/10/06 02:30:37;;;;;;;22.65;3.00;;;;;;;15.55;100.00;101369.44;5101060;28;20032;-73
2023/10/06 02:33:06;;;;;;;20.50;3.00;;;;;;;15.54;100.00;101363.19;5094977;28;20090;-74
2023/10/06 02:35:35;;;;;;;16.55;2.30;;;;;;;15.54;100.00;101351.53;5092548;28;20028;-73
2023/10/06 02:38:05;;;;;;;18.67;2.67;;;;;;;15.54;100.00;101348.81;5075105;28;20024;-73
2023/10/06 02:40:45;;;;;;;15.00;2.15;;;;;;;15.48;100.00;101343.19;5092297;28;20031;-73
2023/10/06 02:43:16;;;;;;;21.67;2.28;;;;;;;15.43;100.00;101337.59;5092406;28;20020;-73
2023/10/06 02:45:42;;;;;;;15.50;2.40;;;;;;;15.42;100.00;101330.50;5092016;28;20032;-73
2023/10/06 02:48:23;;;;;;;19.65;3.03;;;;;;;15.41;100.00;101318.00;5074560;28;20551;-73
2023/10/06 02:50:54;;;;;;;15.85;2.28;;;;;;;15.40;100.00;101310.94;5109703;28;20024;-73
2023/10/06 02:53:23;;;;;;;19.42;2.63;;;;;;;15.36;100.00;101315.09;5097824;28;20526;-74
2023/10/06 02:55:55;;;;;;;18.30;2.33;;;;;;;15.35;100.00;101316.16;5092194;28;20027;-73
2023/10/06 02:58:27;;;;;;;23.75;2.67;;;;;;;15.33;100.00;101302.00;5075814;28;20035;-73
2023/10/06 03:00:55;;;;;;;19.02;2.60;;;;;;;15.30;100.00;101291.59;5106799;28;20125;-74
2023/10/06 03:03:26;;;;;;;22.52;2.75;;;;;;;15.25;100.00;101283.28;5099679;28;20039;-73
2023/10/06 03:05:53;;;;;;;19.77;2.95;;;;;;;15.32;100.00;101294.91;5093779;28;20530;-74
2023/10/06 03:08:20;;;;;;;11.00;1.83;;;;;;;15.32;100.00;101281.34;5092290;28;20478;-73
2023/10/06 03:10:48;;;;;;;17.95;2.28;;;;;;;15.34;100.00;101279.25;5094960;28;20040;-73
2023/10/06 03:13:33;;;;;;;17.67;2.70;;;;;;;15.33;100.00;101269.47;5097297;28;20032;-74
2023/10/06 03:16:00;;;;;;;14.15;2.50;;;;;;;15.36;100.00;101260.88;5091307;28;20094;-73
2023/10/06 03:18:25;;;;;;;20.25;2.40;;;;;;;15.28;100.00;101243.00;5092794;28;20047;-73
2023/10/06 03:20:57;;;;;;;13.75;2.00;;;;;;;15.26;100.00;101238.84;5092581;28;20501;-73
2023/10/06 03:23:38;;;;;;;12.50;2.10;;;;;;;15.35;100.00;101242.94;5093047;28;20527;-73
2023/10/06 03:26:14;;;;;;;12.15;2.10;;;;;;;15.28;100.00;101234.03;5091564;28;20036;-73
2023/10/06 03:28:43;;;;;;;15.27;2.10;;;;;;;15.31;100.00;101230.88;5091048;28;20081;-73
2023/10/06 03:33:48;;;;;;;15.95;2.13;;;;;;;15.35;100.00;101220.44;5091599;28;20392;-73
2023/10/06 03:36:17;;;;;;;19.35;2.05;;;;;;;15.33;100.00;101211.66;5090774;28;20047;-73
2023/10/06 03:38:55;;;;;;;12.35;2.28;;;;;;;15.23;100.00;101207.59;5058328;28;20028;-73
2023/10/06 03:41:31;;;;;;;14.35;1.77;;;;;;;15.10;100.00;101196.84;5061147;28;20061;-73
2023/10/06 03:44:00;;;;;;;14.20;1.70;;;;;;;15.09;100.00;101194.34;5091248;28;20038;-74
2023/10/06 03:46:25;;;;;;;9.07;2.05;;;;;;;15.09;100.00;101186.22;5075403;28;20070;-73
2023/10/06 03:48:52;;;;;;;12.98;1.75;;;;;;;15.10;100.00;101188.72;5091191;28;20123;-73
2023/10/06 03:51:18;;;;;;;13.32;1.90;;;;;;;15.05;100.00;101172.28;5074546;28;20519;-73
2023/10/06 03:53:48;;;;;;;10.85;1.90;;;;;;;15.09;100.00;101178.91;5062698;28;20056;-73
2023/10/06 03:56:17;;;;;;;15.35;2.08;;;;;;;15.08;100.00;101187.28;5094886;28;20032;-73
2023/10/06 03:58:44;;;;;;;10.90;1.42;;;;;;;15.02;100.00;101178.94;5101971;28;20020;-73
2023/10/06 04:01:19;;;;;;;7.60;1.58;;;;;;;14.97;100.00;101173.38;5107540;28;20035;-74
2023/10/06 04:03:45;;;;;;;5.63;1.40;;;;;;;14.93;100.00;101176.72;5095964;28;20030;-73
2023/10/06 04:06:15;;;;;;;6.78;1.10;;;;;;;14.93;100.00;101166.75;5096070;28;20461;-74
2023/10/06 04:08:44;;;;;;;4.18;1.20;;;;;;;14.84;100.00;101164.50;5087050;28;20028;-74
2023/10/06 04:11:13;;;;;;;7.43;1.25;;;;;;;14.89;100.00;101160.06;5080423;28;20479;-74
2023/10/06 04:13:39;;;;;;;7.40;1.38;;;;;;;14.77;100.00;101132.88;5070128;28;20029;-73
2023/10/06 04:16:04;;;;;;;7.10;1.10;;;;;;;14.83;100.00;101146.56;5053345;28;20548;-74
2023/10/06 04:18:32;;;;;;;5.85;1.15;;;;;;;14.77;100.00;101132.03;5082612;28;20125;-73
2023/10/06 04:20:58;;;;;;;5.40;1.30;;;;;;;14.71;100.00;101130.22;5073826;28;20498;-73
2023/10/06 04:23:25;;;;;;;6.60;1.08;;;;;;;14.65;100.00;101118.34;5081317;28;20094;-73
2023/10/06 04:25:55;;;;;;;4.32;0.90;;;;;;;14.55;100.00;101116.13;5097376;28;20032;-72
2023/10/06 04:28:22;;;;;;;7.00;0.95;;;;;;;14.56;100.00;101111.53;5096110;28;20077;-73
2023/10/06 04:30:48;;;;;;;8.82;1.23;;;;;;;14.17;100.00;101072.81;5057669;28;20501;-73
2023/10/06 04:33:15;;;;;;;5.03;1.00;;;;;;;14.31;100.00;101090.63;5090368;28;20122;-73
2023/10/06 04:35:47;;;;;;;4.53;1.00;;;;;;;14.44;100.00;101089.72;5091978;28;20475;-72
2023/10/06 04:38:13;;;;;;;9.05;1.20;;;;;;;14.30;100.00;101077.28;5059356;28;20028;-73
2023/10/06 04:40:43;;;;;;;5.85;1.05;;;;;;;14.39;100.00;101076.00;5071653;28;20059;-73
2023/10/06 04:43:09;;;;;;;8.90;1.65;;;;;;;14.39;100.00;101059.75;5070516;28;20035;-71
2023/10/06 04:45:38;;;;;;;10.38;1.40;;;;;;;14.44;100.00;101059.13;5063849;28;20031;-73
2023/10/06 04:48:07;;;;;;;6.53;1.02;;;;;;;14.36;100.00;101043.94;5075066;28;20379;-73
2023/10/06 04:50:36;;;;;;;6.93;1.55;;;;;;;14.36;100.00;101033.13;5091648;28;20024;-73
2023/10/06 04:53:05;;;;;;;8.85;1.50;;;;;;;14.36;100.00;101029.59;5088801;28;20075;-73
2023/10/06 04:55:31;;;;;;;6.55;1.52;;;;;;;14.05;100.00;100988.75;5068464;28;20028;-73
2023/10/06 04:57:57;;;;;;;6.00;1.10;;;;;;;14.21;100.00;101014.47;5091775;28;20028;-73
2023/10/06 05:00:27;;;;;;;9.45;1.30;;;;;;;14.20;100.00;101001.97;5074272;28;20059;-73
2023/10/06 05:02:52;;;;;;;9.05;1.98;;;;;;;14.21;100.00;100994.72;5069951;28;20104;-73
2023/10/06 05:05:20;;;;;;;8.05;1.30;;;;;;;14.27;100.00;100983.84;5069648;28;20089;-73
2023/10/06 05:07:50;;;;;;;6.82;1.20;;;;;;;14.21;100.00;100973.06;5070140;28;20036;-73
2023/10/06 05:10:25;;;;;;;10.63;1.38;;;;;;;14.32;100.00;100966.94;5068351;28;20046;-73
2023/10/06 05:12:53;;;;;;;6.30;1.40;;;;;;;14.29;100.00;100957.38;5070464;28;20028;-73
2023/10/06 05:15:26;;;;;;;10.55;1.50;;;;;;;14.38;100.00;100957.94;5080489;28;20438;-73
2023/10/06 05:17:58;;;;;;;7.43;1.30;;;;;;;14.29;100.00;100926.78;5092865;28;20063;-73
2023/10/06 05:20:31;;;;;;;9.57;2.03;;;;;;;14.24;100.00;100926.63;5087622;28;20528;-73
2023/10/06 05:23:09;;;;;;;8.07;1.20;;;;;;;14.39;100.00;100929.81;5074407;28;20024;-72
2023/10/06 05:25:36;;;;;;;10.40;1.55;;;;;;;14.31;100.00;100913.84;5077541;28;20051;-73
2023/10/06 05:28:02;;;;;;;8.90;1.40;;;;;;;14.37;100.00;100925.66;5079606;28;20043;-72
2023/10/06 05:30:29;;;;;;;9.60;1.70;;;;;;;14.35;100.00;100912.34;5079864;28;20021;-73
2023/10/06 05:32:57;;;;;;;9.30;1.20;;;;;;;14.34;100.00;100905.28;5093675;28;20028;-73
2023/10/06 05:35:27;;;;;;;9.52;1.52;;;;;;;14.39;100.00;100908.16;5093930;28;20020;-73
2023/10/06 05:37:53;;;;;;;6.75;1.20;;;;;;;14.31;100.00;100881.38;5094153;28;20063;-73
2023/10/06 05:40:20;;;;;;;7.32;1.30;;;;;;;14.26;100.00;100884.72;5077262;28;20438;-73
2023/10/06 05:42:49;;;;;;;6.53;1.15;;;;;;;14.30;100.00;100880.53;5095029;28;20099;-73
2023/10/06 05:45:20;;;;;;;7.25;1.40;;;;;;;14.38;100.00;100882.13;5077441;28;20031;-73
2023/10/06 05:47:46;;;;;;;9.48;1.10;;;;;;;14.38;100.00;100878.59;5077099;28;20028;-72
2023/10/06 05:50:18;;;;;;;5.30;0.90;;;;;;;14.37;100.00;100872.38;5076764;28;20141;-73
2023/10/06 05:52:51;;;;;;;4.28;0.93;;;;;;;14.29;100.00;100865.34;5092166;28;20055;-73
2023/10/06 05:55:20;;;;;;;6.72;1.08;;;;;;;14.37;100.00;100866.94;5076709;28;20024;-73
2023/10/06 05:57:55;;;;;;;5.50;1.02;;;;;;;14.35;100.00;100858.22;5059292;28;20067;-72
2023/10/06 06:00:29;;;;;;;3.83;0.88;;;;;;;14.30;100.00;100829.13;5084729;28;20032;-72
2023/10/06 06:02:59;;;;;;;6.90;1.10;;;;;;;14.46;100.00;100840.41;5076512;28;20057;-73
2023/10/06 06:05:29;;;;;;;8.05;1.27;;;;;;;14.46;100.00;100838.53;5092683;28;20051;-73
2023/10/06 06:07:59;;;;;;;4.72;1.00;;;;;;;14.46;100.00;100833.09;5092743;28;20356;-73
2023/10/06 06:10:25;;;;;;;4.43;0.90;;;;;;;14.50;100.00;100828.94;5076038;28;20036;-73
2023/10/06 06:12:50;;;;;;;3.58;0.90;;;;;;;14.57;100.00;100818.88;5090353;28;20104;-73
2023/10/06 06:15:16;;;;;;;4.35;0.68;;;;;;;14.53;100.00;100816.81;5069602;28;20123;-73
2023/10/06 06:17:42;;;;;;;3.05;0.90;;;;;;;14.57;100.00;100818.88;5072043;28;20032;-73
2023/10/06 06:20:14;;;;;;;3.35;0.75;;;;;;;14.49;100.00;100799.34;5091162;28;20035;-73
2023/10/06 06:22:43;;;;;;;3.90;0.50;;;;;;;14.59;100.00;100790.72;5074860;28;20066;-73
2023/10/06 06:25:09;;;;;;;2.80;0.50;;;;;;;14.51;100.00;100771.03;5091364;28;20036;-73
2023/10/06 06:27:34;;;;;;;1.23;0.50;;;;;;;14.69;100.00;100785.59;5074772;28;20024;-73
2023/10/06 06:30:00;;;;;;;3.28;0.43;;;;;;;14.74;100.00;100775.75;5075014;28;20081;-73
2023/10/06 06:32:25;;;;;;;3.42;0.60;;;;;;;14.80;100.00;100782.97;5092375;28;20032;-73
2023/10/06 06:34:51;;;;;;;2.90;0.40;;;;;;;14.87;100.00;100773.94;5088827;28;20036;-73
2023/10/06 06:37:17;;;;;;;2.15;0.55;;;;;;;14.98;100.00;100770.44;5081205;28;20082;-73
2023/10/06 06:39:44;;;;;;;2.38;0.60;;;;;;;15.06;100.00;100769.28;5071414;28;20028;-73
2023/10/06 06:42:10;;;;;;;2.75;0.40;;;;;;;15.07;100.00;100762.84;5071727;28;20058;-73
2023/10/06 06:44:36;;;;;;;3.35;0.60;;;;;;;15.09;100.00;100745.28;5081138;28;20126;-73
2023/10/06 06:47:03;;;;;;;2.42;0.50;;;;;;;15.12;100.00;100752.94;5092821;28;20062;-73
2023/10/06 06:49:29;;;;;;;3.45;0.70;;;;;;;15.14;100.00;100756.25;5091283;28;20035;-73
2023/10/06 06:51:58;;;;;;;4.30;0.80;;;;;;;15.22;100.00;100738.84;5092926;28;20071;-74
2023/10/06 06:54:27;;;;;;;3.35;0.98;;;;;;;15.22;100.00;100741.53;5106541;28;20028;-73
2023/10/06 06:56:53;;;;;;;8.23;1.70;;;;;;;15.25;100.00;100738.38;5098566;28;20035;-73
2023/10/06 06:59:19;;;;;;;4.30;1.05;;;;;;;15.22;100.00;100703.59;5085486;28;20053;-73
2023/10/06 07:01:45;;;;;;;4.82;0.90;;;;;;;15.33;100.00;100702.81;5098552;28;20035;-73
2023/10/06 07:04:13;;;;;;;7.95;0.80;;;;;;;15.63;100.00;100729.00;5091537;28;20026;-73
2023/10/06 07:06:38;;;;;;;5.20;0.73;;;;;;;15.81;100.00;100707.22;5074865;28;20111;-73
2023/10/06 07:09:12;;;;;;;7.40;0.60;;;;;;;15.79;100.00;100667.81;5057978;28;20534;-73
2023/10/06 07:11:39;;;;;;;5.18;0.70;;;;;;;16.19;100.00;100701.31;5091720;28;20043;-74
2023/10/06 07:14:04;;;;;;;5.30;0.70;;;;;;;16.41;100.00;100704.19;5092918;28;20046;-73
2023/10/06 07:16:31;;;;;;;4.18;0.80;;;;;;;16.53;100.00;100692.50;5057694;28;20118;-73
2023/10/06 07:18:56;;;;;;;9.60;1.40;;;;;;;16.59;100.00;100692.34;5092418;28;20073;-73
2023/10/06 07:21:22;;;;;;;10.10;1.70;;;;;;;16.67;100.00;100689.22;5104281;28;20028;-74
2023/10/06 07:23:51;;;;;;;19.20;2.33;;;;;;;16.82;100.00;100691.47;5073394;28;20035;-74
2023/10/06 07:26:17;;;;;;;11.95;2.30;;;;;;;16.66;100.00;100646.84;5054552;28;20039;-74
2023/10/06 07:28:43;;;;;;;16.48;3.20;;;;;;;16.96;100.00;100683.84;5072315;28;20020;-74
2023/10/06 07:31:12;;;;;;;14.93;2.80;;;;;;;17.04;100.00;100677.16;5072120;28;20024;-74
2023/10/06 07:33:39;;;;;;;18.88;3.08;;;;;;;17.09;100.00;100674.56;5091555;28;20042;-73
2023/10/06 07:36:17;;;;;;;20.90;2.67;;;;;;;17.14;100.00;100661.84;5092224;28;20028;-74
2023/10/06 07:38:44;;;;;;;17.85;3.20;;;;;;;17.26;100.00;100659.06;5090238;28;20024;-73
2023/10/06 07:41:23;;;;;;;17.85;3.35;;;;;;;17.28;100.00;100653.38;5091933;28;20547;-73
2023/10/06 07:43:49;;;;;;;15.60;2.95;;;;;;;17.31;100.00;100648.25;5090596;28;20047;-74
2023/10/06 07:46:16;;;;;;;20.08;2.60;;;;;;;17.26;100.00;100628.34;5057616;28;20081;-74
2023/10/06 07:48:45;;;;;;;18.40;2.92;;;;;;;17.26;100.00;100618.28;5074425;28;20491;-74
2023/10/06 07:51:13;;;;;;;19.08;2.45;;;;;;;17.42;100.00;100635.66;5090791;28;20024;-74
2023/10/06 07:53:39;;;;;;;15.63;2.60;;;;;;;17.41;100.00;100634.00;5090754;28;20036;-74
2023/10/06 07:56:08;;;;;;;20.00;2.97;;;;;;;17.53;100.00;100628.47;5092477;28;20126;-74
2023/10/06 07:58:38;;;;;;;11.80;2.35;;;;;;;17.46;100.00;100633.25;5090864;28;20031;-73
2023/10/06 08:01:12;;;;;;;10.70;2.25;;;;;;;17.53;100.00;100623.03;5090866;28;20047;-74
2023/10/06 08:03:38;;;;;;;15.05;2.20;;;;;;;17.48;100.00;100609.34;5090842;28;20102;-74
2023/10/06 08:06:08;;;;;;;18.85;2.63;;;;;;;17.56;100.00;100607.03;5091968;28;20032;-74
2023/10/06 08:08:37;;;;;;;14.10;2.65;;;;;;;17.55;100.00;100599.13;5073196;28;20020;-74
2023/10/06 08:11:03;;;;;;;17.48;2.58;;;;;;;17.73;100.00;100611.59;5073939;28;20047;-74
2023/10/06 08:13:40;;;;;;;18.35;2.60;;;;;;;17.75;100.00;100610.28;5105867;28;20024;-73
2023/10/06 08:16:06;;;;;;;12.68;2.40;;;;;;;17.82;100.00;100613.69;5080001;28;20513;-73
2023/10/06 08:18:32;;;;;;;12.05;2.30;;;;;;;17.70;100.00;100590.34;5093369;28;20340;-74
2023/10/06 08:21:03;;;;;;;9.90;1.95;;;;;;;17.78;100.00;100579.88;5089456;28;20123;-74
2023/10/06 08:23:29;;;;;;;12.55;2.22;;;;;;;17.88;100.00;100583.78;5084815;28;20119;-74
2023/10/06 08:25:56;;;;;;;12.20;2.10;;;;;;;17.95;100.00;100574.38;5104869;28;20024;-74
2023/10/06 08:28:26;;;;;;;11.27;2.63;;;;;;;17.94;100.00;100564.53;5093022;28;20103;-74
2023/10/06 08:30:54;;;;;;;18.35;2.60;;;;;;;18.00;100.00;100573.59;5074007;28;20114;-74
2023/10/06 08:33:20;;;;;;;13.57;2.20;;;;;;;18.01;100.00;100564.34;5073460;28;20047;-74
2023/10/06 08:35:45;;;;;;;13.23;2.47;;;;;;;18.04;100.00;100553.78;5089943;28;20034;-74
2023/10/06 08:38:24;;;;;;;10.85;2.20;;;;;;;17.91;100.00;100526.13;5091555;28;20031;-74
2023/10/06 08:40:54;;;;;;;17.63;2.22;;;;;;;18.06;100.00;100540.72;5073537;28;20036;-74
2023/10/06 08:43:25;;;;;;;12.70;2.13;;;;;;;18.11;100.00;100531.78;5091217;28;20039;-74
2023/10/06 08:45:51;;;;;;;17.08;2.30;;;;;;;18.22;100.00;100527.28;5090606;28;20028;-74
2023/10/06 08:48:19;;;;;;;13.95;2.08;;;;;;;18.27;100.00;100514.53;5091590;28;20030;-74
2023/10/06 08:50:47;;;;;;;10.85;2.63;;;;;;;18.27;100.00;100513.72;5098370;28;20024;-74
2023/10/06 08:53:15;;;;;;;13.48;2.40;;;;;;;18.19;100.00;100498.66;5110592;28;20040;-74
2023/10/06 08:55:44;;;;;;;16.95;2.15;;;;;;;18.30;100.00;100508.56;5099343;28;20492;-74
2023/10/06 08:58:13;;;;;;;16.20;2.13;;;;;;;18.39;100.00;100502.66;5105812;28;20044;-74
2023/10/06 09:00:43;;;;;;;12.35;2.10;;;;;;;18.34;100.00;100502.63;5110904;28;20425;-74
2023/10/06 09:03:13;;;;;;;9.70;2.00;;;;;;;18.30;100.00;100486.78;5107248;28;20431;-74
2023/10/06 09:05:40;;;;;;;19.10;2.72;;;;;;;18.36;100.00;100489.56;5106737;28;20027;-74
2023/10/06 09:08:08;;;;;;;15.82;2.40;;;;;;;18.26;100.00;100469.31;5113543;28;20437;-74
2023/10/06 09:10:40;;;;;;;13.07;2.47;;;;;;;18.27;100.00;100470.94;5114732;28;20048;-74
2023/10/06 09:13:11;;;;;;;13.60;2.97;;;;;;;18.19;100.00;100441.47;5117007;27;20027;-74
2023/10/06 09:15:39;;;;;;;14.35;2.95;;;;;;;18.37;100.00;100469.41;5103380;28;20032;-74
2023/10/06 09:18:28;;;;;;;11.18;2.58;;;;;;;18.39;100.00;100457.19;5099358;28;20475;-74
2023/10/06 09:20:54;;;;;;;9.70;2.03;;;;;;;18.29;100.00;100454.38;5100346;28;20042;-74
2023/10/06 09:23:41;;;;;;;15.52;2.67;;;;;;;18.38;100.00;100450.09;5107548;28;20024;-74
2023/10/06 09:26:09;;;;;;;12.68;2.47;;;;;;;18.38;100.00;100425.59;5096576;28;20170;-74
2023/10/06 09:28:47;;;;;;;18.67;2.55;;;;;;;18.38;100.00;100424.75;5102239;28;20027;-74
2023/10/06 09:31:13;;;;;;;17.02;2.50;;;;;;;18.28;100.00;100437.22;5075440;28;20391;-73
2023/10/06 09:33:38;;;;;;;13.48;2.15;;;;;;;18.42;100.00;100429.41;5076185;28;20086;-73
2023/10/06 09:36:11;;;;;;;12.80;2.35;;;;;;;18.49;100.00;100431.94;5093433;28;20440;-74
2023/10/06 09:38:41;;;;;;;15.43;2.63;;;;;;;18.50;100.00;100419.94;5087535;28;20038;-74
2023/10/06 09:41:09;;;;;;;13.90;2.38;;;;;;;18.58;100.00;100422.19;5095612;28;20339;-74
2023/10/06 09:43:39;;;;;;;10.27;2.35;;;;;;;18.57;100.00;100408.81;5122404;28;20122;-73
2023/10/06 09:46:13;;;;;;;8.82;2.00;;;;;;;18.63;100.00;100408.59;5124427;28;20035;-74
2023/10/06 09:48:45;;;;;;;14.18;2.38;;;;;;;18.48;100.00;100392.16;5123960;28;20015;-74
2023/10/06 09:51:12;;;;;;;6.55;1.70;;;;;;;18.55;100.00;100398.19;5106464;28;20032;-73
2023/10/06 09:53:40;;;;;;;11.73;1.70;;;;;;;18.58;100.00;100399.56;5099522;28;20052;-74
2023/10/06 09:56:09;;;;;;;11.48;2.00;;;;;;;18.63;100.00;100397.69;5095572;28;20027;-74
2023/10/06 09:58:36;;;;;;;8.15;1.58;;;;;;;18.58;100.00;100400.38;5080545;28;20490;-74
2023/10/06 10:01:03;;;;;;;13.23;2.10;;;;;;;18.68;100.00;100405.91;5105828;28;20074;-74
2023/10/06 10:03:34;;;;;;;11.90;2.08;;;;;;;18.75;100.00;100406.53;5098430;28;20027;-75
2023/10/06 10:06:04;;;;;;;9.60;1.92;;;;;;;18.74;100.00;100396.72;5062799;28;20081;-74
2023/10/06 10:08:41;;;;;;;11.73;2.13;;;;;;;18.68;100.00;100396.91;5093649;28;20059;-74
2023/10/06 10:11:14;;;;;;;12.23;2.40;;;;;;;18.86;100.00;100401.13;5094228;28;20028;-74
2023/10/06 10:13:55;;;;;;;13.02;1.80;;;;;;;18.82;100.00;100405.47;5092392;28;20332;-74
2023/10/06 10:16:26;;;;;;;11.55;2.20;;;;;;;18.76;100.00;100407.34;5094947;28;20016;-74
2023/10/06 10:19:26;;;;;;;12.18;2.63;;;;;;;18.94;100.00;100392.44;5091219;28;20024;-74
2023/10/06 10:21:54;;;;;;;10.15;2.20;;;;;;;19.03;100.00;100393.59;5038561;28;20036;-75
2023/10/06 10:24:20;;;;;;;10.10;1.98;;;;;;;19.23;100.00;100387.41;5078739;28;20024;-75
2023/10/06 10:26:47;;;;;;;11.02;2.05;;;;;;;19.30;100.00;100374.31;5092067;28;20427;-75
2023/10/06 10:29:13;;;;;;;11.10;2.70;;;;;;;19.54;100.00;100387.53;5102714;28;20035;-75
2023/10/06 10:31:42;;;;;;;15.20;2.55;;;;;;;19.73;100.00;100374.19;5087810;28;20495;-75
2023/10/06 10:34:15;;;;;;;14.02;2.65;;;;;;;19.68;100.00;100375.84;5075889;28;20036;-75
2023/10/06 10:36:41;;;;;;;18.15;2.38;;;;;;;19.68;100.00;100370.38;5095891;28;20036;-75
2023/10/06 10:39:17;;;;;;;14.68;2.65;;;;;;;19.75;100.00;100367.38;5076444;28;20028;-74
2023/10/06 10:41:45;;;;;;;14.43;3.03;;;;;;;19.66;100.00;100360.81;5092620;28;20020;-75
2023/10/06 10:44:12;;;;;;;14.77;2.50;;;;;;;19.73;100.00;100361.38;5094669;28;20024;-75
2023/10/06 10:46:49;;;;;;;15.40;2.80;;;;;;;19.86;100.00;100352.66;5093182;28;20031;-74
2023/10/06 10:49:19;;;;;;;16.50;2.70;;;;;;;19.74;100.00;100356.75;5093537;28;20140;-75
2023/10/06 10:51:55;;;;;;;15.43;3.17;;;;;;;19.75;100.00;100351.00;5094001;28;20043;-75
2023/10/06 10:54:44;;;;;;;15.98;3.20;;;;;;;19.84;100.00;100338.47;5097970;28;20016;-75
2023/10/06 10:57:21;;;;;;;16.92;3.25;;;;;;;19.93;100.00;100342.28;5087404;28;20043;-75
2023/10/06 11:00:21;;;;;;;15.13;2.80;;;;;;;19.95;100.00;100351.03;5097322;28;20431;-75
2023/10/06 11:02:52;;;;;;;18.15;3.28;;;;;;;19.91;100.00;100338.19;5093821;28;20106;-74
2023/10/06 11:05:21;;;;;;;18.70;3.80;;;;;;;19.94;100.00;100329.47;5102728;28;20046;-74
2023/10/06 11:07:55;;;;;;;14.88;3.17;;;;;;;20.04;100.00;100326.72;5104470;28;20406;-75
2023/10/06 11:10:22;;;;;;;16.25;3.20;;;;;;;20.11;100.00;100323.72;5091410;28;20467;-75
2023/10/06 11:12:50;;;;;;;19.42;3.17;;;;;;;20.12;100.00;100312.50;5091203;28;20032;-75
2023/10/06 11:15:30;;;;;;;17.52;3.85;;;;;;;20.27;100.00;100316.34;5073881;28;20035;-75
2023/10/06 11:17:59;;;;;;;17.83;3.40;;;;;;;20.34;100.00;100311.41;5099702;28;20020;-74
2023/10/06 11:20:33;;;;;;;19.42;4.07;;;;;;;20.24;100.00;100298.56;5063663;28;20049;-75
2023/10/06 11:23:00;;;;;;;19.60;3.40;;;;;;;20.30;100.00;100293.94;5094549;28;20054;-75
2023/10/06 11:25:29;;;;;;;23.00;4.53;;;;;;;20.17;100.00;100296.13;5058441;28;20054;-75
2023/10/06 11:27:58;;;;;;;23.88;4.03;;;;;;;20.28;100.00;100287.91;5092248;28;20115;-74
2023/10/06 11:30:26;;;;;;;23.85;4.35;;;;;;;20.35;100.00;100286.50;5083260;28;20089;-74